Anna-meta — A8XN3 — position and weather

sailwx.info

Track history (hours):
 
Tides and Currents Weather Stations Pressure Air Temp Water Temp Dewpoint Dewpoint Depression Visibility Wind Speed Wind Dir Waves Ship Positions

Anna-meta

Last reported at 2014-Dec-20 15:33 UTC. Time now 2014-Dec-20 16:30 UTC.
Position S 29°47' E 031°13'.

Length 190 m; draft 13.4 m.

Type: Cargo ship. MMSI: 636092143.

Date/timePositionNaut miles runAvg speedWind from/ knotsBaromVisibWave heightAir tempDewpointWater temp
2014-Dec-20 15:33S 29°47' E 031°13'0 0.0
2014-Dec-20 14:33S 29°47' E 031°13'0 0.0
2014-Dec-20 13:33S 29°47' E 031°12'0 0.1
2014-Dec-20 12:33S 29°47' E 031°12'0 0.0
2014-Dec-20 11:33S 29°47' E 031°12'0 0.0
2014-Dec-20 10:33S 29°47' E 031°12'0 0.0
2014-Dec-20 09:33S 29°47' E 031°12'0 0.0
2014-Dec-20 08:33S 29°47' E 031°12'0 0.0
2014-Dec-20 07:33S 29°47' E 031°12'2 2.1
2014-Dec-20 06:33S 29°49' E 031°14'8 7.5
2014-Dec-20 05:33S 29°57' E 031°12'5 5.4
2014-Dec-20 04:33S 30°01' E 031°16'5 5.5
2014-Dec-20 03:33S 30°05' E 031°11'6 6.2
2014-Dec-20 02:33S 30°10' E 031°07'  
2014-Dec-16 18:08S 33°58' E 025°38'0 0.0
2014-Dec-14 21:08S 33°58' E 025°38'66 2.0
2014-Dec-13 11:20S 33°56' E 026°58'29911.6
2014-Dec-12 09:33S 30°18' E 030°60'1413.8
2014-Dec-12 08:33S 30°07' E 031°09'1413.8
2014-Dec-12 07:33S 29°57' E 031°20'1312.7
2014-Dec-12 06:33S 29°46' E 031°28'1313.2
2014-Dec-12 05:33S 29°41' E 031°42'  
Track history (hours):
 
Tides and Currents Weather Stations Pressure Air Temp Water Temp Dewpoint Dewpoint Depression Visibility Wind Speed Wind Dir Waves Ship Positions

Anna-meta

Last reported at 2014-Dec-20 15:33 UTC. Time now 2014-Dec-20 16:30 UTC.
Position S 29°47' E 031°13'.

Length 190 m; draft 13.4 m.

Type: Cargo ship. MMSI: 636092143.

Date/timePositionNaut miles runAvg speedWind from/ knotsBaromVisibWave heightAir tempDewpointWater temp
2014-Dec-20 15:33S 29°47' E 031°13'0 0.0
2014-Dec-20 14:33S 29°47' E 031°13'0 0.0
2014-Dec-20 13:33S 29°47' E 031°12'0 0.1
2014-Dec-20 12:33S 29°47' E 031°12'0 0.0
2014-Dec-20 11:33S 29°47' E 031°12'0 0.0
2014-Dec-20 10:33S 29°47' E 031°12'0 0.0
2014-Dec-20 09:33S 29°47' E 031°12'0 0.0
2014-Dec-20 08:33S 29°47' E 031°12'0 0.0
2014-Dec-20 07:33S 29°47' E 031°12'2 2.1
2014-Dec-20 06:33S 29°49' E 031°14'8 7.5
2014-Dec-20 05:33S 29°57' E 031°12'5 5.4
2014-Dec-20 04:33S 30°01' E 031°16'5 5.5
2014-Dec-20 03:33S 30°05' E 031°11'6 6.2
2014-Dec-20 02:33S 30°10' E 031°07'  
2014-Dec-16 18:08S 33°58' E 025°38'0 0.0
2014-Dec-14 21:08S 33°58' E 025°38'66 2.0
2014-Dec-13 11:20S 33°56' E 026°58'29911.6
2014-Dec-12 09:33S 30°18' E 030°60'1413.8
2014-Dec-12 08:33S 30°07' E 031°09'1413.8
2014-Dec-12 07:33S 29°57' E 031°20'1312.7
2014-Dec-12 06:33S 29°46' E 031°28'1313.2
2014-Dec-12 05:33S 29°41' E 031°42'  

Dump ship's entire track history